createdAt,value
2023-05-04T03:54:29.776Z,3.10
2023-05-04T03:57:32.254Z,4.18
2023-05-04T04:00:35.148Z,4.20
2023-05-04T04:03:39.009Z,4.63
2023-05-04T04:06:43.313Z,3.78
2023-05-04T04:09:47.417Z,4.13
2023-05-04T04:12:50.213Z,3.97
2023-05-04T04:15:52.774Z,4.28
2023-05-04T04:18:55.417Z,3.85
2023-05-04T04:21:59.971Z,3.55
2023-05-04T04:25:04.112Z,2.97
2023-05-04T04:28:06.632Z,3.13
2023-05-04T04:31:09.456Z,3.58
2023-05-04T04:34:11.983Z,3.50
2023-05-04T04:37:14.557Z,3.30
2023-05-04T04:40:18.883Z,3.38
2023-05-04T04:43:21.459Z,2.88
2023-05-04T04:46:23.972Z,2.55
2023-05-04T04:49:27.455Z,5.07
2023-05-04T04:52:29.961Z,4.15
2023-05-04T04:55:34.620Z,3.33
2023-05-04T04:58:37.276Z,3.35
2023-05-04T05:01:39.776Z,3.58
2023-05-04T05:04:42.363Z,3.50
2023-05-04T05:07:44.915Z,3.08
2023-05-04T05:10:48.757Z,3.17
2023-05-04T05:13:51.546Z,3.38
2023-05-04T05:16:54.554Z,3.40
2023-05-04T05:19:57.110Z,3.20
2023-05-04T05:22:59.747Z,3.25
2023-05-04T05:26:03.696Z,3.05
2023-05-04T05:29:06.228Z,2.92
2023-05-04T05:32:08.729Z,3.10
2023-05-04T05:35:12.489Z,3.58
2023-05-04T05:38:16.218Z,2.80
2023-05-04T05:41:20.210Z,2.92
2023-05-04T05:44:22.708Z,2.90
2023-05-04T05:47:25.310Z,2.80
2023-05-04T05:50:27.803Z,3.38
2023-05-04T05:53:30.420Z,2.85
2023-05-04T05:56:34.272Z,2.92
2023-05-04T05:59:36.807Z,2.25
2023-05-04T06:02:39.368Z,2.08
2023-05-04T06:05:41.956Z,2.63
2023-05-04T06:08:44.953Z,2.53
2023-05-04T06:11:48.799Z,2.40
2023-05-04T06:14:51.553Z,2.25
2023-05-04T06:17:54.111Z,2.30
2023-05-04T06:20:59.742Z,2.53
2023-05-04T06:24:02.597Z,1.92
2023-05-04T06:27:06.808Z,1.88
2023-05-04T06:30:10.579Z,2.30
2023-05-04T06:33:13.414Z,2.55
2023-05-04T06:36:16.307Z,1.70
2023-05-04T06:39:19.256Z,2.15
2023-05-04T06:42:23.121Z,2.15
2023-05-04T06:45:25.625Z,1.48
2023-05-04T06:48:28.144Z,1.95
2023-05-04T06:51:30.724Z,2.00
2023-05-04T06:54:33.264Z,1.75
2023-05-04T06:57:37.107Z,1.77
2023-05-04T07:00:40.132Z,1.85
2023-05-04T07:03:42.761Z,1.88
2023-05-04T07:06:45.263Z,1.60
2023-05-04T07:09:48.268Z,2.15
2023-05-04T07:12:52.134Z,1.55
2023-05-04T07:15:54.798Z,1.67
2023-05-04T07:18:57.531Z,1.90
2023-05-04T07:22:00.815Z,2.15
2023-05-04T07:25:03.466Z,1.67
2023-05-04T07:28:07.392Z,1.65
2023-05-04T07:31:10.079Z,2.20
2023-05-04T07:34:12.579Z,1.75
2023-05-04T07:37:15.906Z,1.52
2023-05-04T07:40:18.692Z,3.00
2023-05-04T07:43:22.857Z,2.13
2023-05-04T07:46:25.391Z,1.58
2023-05-04T07:49:28.226Z,2.15
2023-05-04T07:52:30.852Z,2.25
2023-05-04T07:55:33.373Z,2.42
2023-05-04T07:58:37.203Z,2.03
2023-05-04T08:01:41.365Z,1.92
2023-05-04T08:04:45.783Z,2.00
2023-05-04T08:07:48.280Z,1.55
2023-05-04T08:10:50.867Z,1.77
2023-05-04T08:13:54.691Z,1.83
2023-05-04T08:16:57.262Z,1.67
2023-05-04T08:19:59.749Z,1.73
2023-05-04T08:23:02.741Z,2.20
2023-05-04T08:26:06.078Z,2.20
2023-05-04T08:29:10.916Z,2.35
2023-05-04T08:32:13.629Z,2.40
2023-05-04T08:35:16.373Z,2.10
2023-05-04T08:38:18.878Z,2.10
2023-05-04T08:41:22.053Z,1.95
2023-05-04T08:44:26.035Z,2.10
2023-05-04T08:47:29.798Z,2.15
2023-05-04T08:50:34.305Z,2.30
2023-05-04T08:53:38.891Z,1.80
2023-05-04T08:56:42.795Z,2.17
2023-05-04T08:59:50.520Z,1.65
2023-05-04T09:02:53.977Z,2.30
2023-05-04T09:05:57.814Z,2.28
2023-05-04T09:09:00.450Z,2.20
2023-05-04T09:12:02.982Z,2.13
2023-05-04T09:15:17.410Z,2.47
2023-05-04T09:18:20.299Z,2.42
2023-05-04T09:21:29.827Z,2.22
2023-05-04T09:24:32.963Z,2.05
2023-05-04T09:27:35.619Z,2.00
2023-05-04T09:30:39.517Z,2.08
2023-05-04T09:33:42.850Z,2.05
2023-05-04T09:36:45.439Z,1.92
2023-05-04T09:39:55.555Z,2.15
2023-05-04T09:42:58.535Z,1.90
2023-05-04T09:46:03.245Z,2.15
2023-05-04T09:49:05.964Z,2.00
2023-05-04T09:52:08.516Z,2.30
2023-05-04T09:55:14.469Z,2.05
2023-05-04T09:58:18.477Z,2.10
2023-05-04T10:01:23.119Z,1.88
2023-05-04T10:04:26.610Z,2.03
2023-05-04T10:07:31.863Z,2.05
2023-05-04T10:10:35.902Z,2.00
2023-05-04T10:13:39.142Z,1.92
2023-05-04T10:16:51.607Z,1.95
2023-05-04T10:20:08.251Z,2.25
2023-05-04T10:23:39.373Z,1.65
2023-05-04T10:27:03.250Z,2.38
2023-05-04T10:30:07.641Z,1.92
2023-05-04T10:33:13.260Z,2.13
2023-05-04T10:36:15.933Z,1.90
2023-05-04T10:39:20.412Z,1.75
2023-05-04T10:42:23.287Z,2.05
2023-05-04T10:45:35.611Z,2.20
2023-05-04T10:48:39.475Z,2.15
2023-05-04T10:51:48.992Z,1.90
2023-05-04T10:55:00.050Z,1.92
2023-05-04T10:58:02.880Z,2.30
2023-05-04T11:01:12.751Z,1.75
2023-05-04T11:04:25.466Z,2.22
2023-05-04T11:07:38.637Z,1.80
2023-05-04T11:10:41.833Z,2.20
2023-05-04T11:13:47.191Z,2.00
2023-05-04T11:16:49.817Z,2.20
2023-05-04T11:19:53.839Z,2.05
2023-05-04T11:22:56.510Z,2.30
2023-05-04T11:25:59.121Z,2.15
2023-05-04T11:29:01.749Z,2.00
2023-05-04T11:32:04.351Z,2.25
2023-05-04T11:35:11.528Z,2.20
2023-05-04T11:38:20.118Z,2.15
2023-05-04T11:41:27.096Z,2.22
2023-05-04T11:44:30.172Z,2.33
2023-05-04T11:47:32.746Z,2.17
2023-05-04T11:50:37.007Z,1.92
2023-05-04T11:53:40.670Z,2.10
2023-05-04T11:56:43.488Z,1.90
2023-05-04T11:59:49.493Z,1.90
2023-05-04T12:02:56.715Z,1.45
2023-05-04T12:06:01.948Z,2.15
2023-05-04T12:09:06.170Z,1.60
2023-05-04T12:12:08.834Z,2.35
2023-05-04T12:15:11.838Z,1.90
2023-05-04T12:18:29.455Z,1.98
2023-05-04T12:21:34.326Z,1.90
2023-05-04T12:24:36.968Z,1.80
2023-05-04T12:27:42.572Z,1.95
2023-05-04T12:30:45.119Z,1.90
2023-05-04T12:33:47.605Z,1.50
2023-05-04T12:36:52.292Z,1.60
2023-05-04T12:39:54.798Z,1.40
2023-05-04T12:42:57.298Z,2.05
2023-05-04T12:46:00.279Z,2.45
2023-05-04T12:49:03.025Z,2.15
2023-05-04T12:52:06.917Z,2.13
2023-05-04T12:55:09.844Z,1.60
2023-05-04T12:58:12.813Z,1.42
2023-05-04T13:01:15.511Z,2.25
2023-05-04T13:04:18.137Z,1.83
2023-05-04T13:07:21.958Z,2.50
2023-05-04T13:10:25.062Z,1.65
2023-05-04T13:13:29.368Z,2.58
2023-05-04T13:16:32.032Z,1.80
2023-05-04T13:19:34.597Z,1.65
2023-05-04T13:22:38.529Z,2.33
2023-05-04T13:25:41.085Z,1.73
2023-05-04T13:28:43.602Z,1.52
2023-05-04T13:31:46.128Z,1.80
2023-05-04T13:34:48.796Z,2.10
2023-05-04T13:37:52.652Z,1.80
2023-05-04T13:40:55.220Z,1.95
2023-05-04T13:43:57.719Z,2.05
2023-05-04T13:47:00.356Z,2.00
2023-05-04T13:50:02.976Z,1.90
2023-05-04T13:53:06.856Z,1.90
2023-05-04T13:56:09.541Z,3.58
2023-05-04T13:59:12.006Z,4.47
2023-05-04T14:02:14.520Z,3.08
2023-05-04T14:05:17.063Z,2.20
2023-05-04T14:08:20.885Z,1.88
2023-05-04T14:11:23.515Z,2.05
2023-05-04T14:14:26.113Z,2.10
2023-05-04T14:17:28.663Z,2.05
2023-05-04T14:20:31.217Z,2.05
2023-05-04T14:23:35.038Z,2.08
2023-05-04T14:26:37.960Z,1.63
2023-05-04T14:29:40.446Z,1.83
2023-05-04T14:32:42.982Z,1.50
2023-05-04T14:35:47.927Z,2.10
2023-05-04T14:38:52.130Z,2.08
2023-05-04T14:41:56.835Z,2.03
2023-05-04T14:44:59.690Z,1.83
2023-05-04T14:48:03.090Z,2.05
2023-05-04T14:51:05.802Z,2.83
2023-05-04T14:54:09.639Z,2.22
2023-05-04T14:57:12.624Z,3.33
2023-05-04T15:00:17.255Z,2.08
2023-05-04T15:03:19.865Z,2.80
2023-05-04T15:06:22.431Z,2.03
2023-05-04T15:09:26.412Z,2.40
2023-05-04T15:12:28.985Z,2.30
2023-05-04T15:15:31.532Z,2.47
2023-05-04T15:18:34.010Z,2.45
2023-05-04T15:21:36.533Z,2.67
2023-05-04T15:24:40.455Z,2.63
2023-05-04T15:27:44.403Z,2.80
2023-05-04T15:30:46.891Z,3.85
2023-05-04T15:33:49.655Z,3.28
2023-05-04T15:36:52.551Z,2.53
2023-05-04T15:39:57.861Z,2.47
2023-05-04T15:43:01.089Z,2.53
2023-05-04T15:46:03.560Z,2.45
2023-05-04T15:49:06.225Z,2.08
2023-05-04T15:52:10.442Z,2.33
2023-05-04T15:55:25.475Z,2.45
2023-05-04T15:58:28.987Z,2.92
2023-05-04T16:01:32.137Z,2.72
2023-05-04T16:04:34.695Z,2.55
2023-05-04T16:07:37.233Z,2.38
2023-05-04T16:10:41.049Z,2.30
2023-05-04T16:13:43.537Z,4.32
2023-05-04T16:16:46.080Z,3.30
2023-05-04T16:19:48.819Z,3.83
2023-05-04T16:22:51.316Z,2.28
2023-05-04T16:25:55.268Z,2.40
2023-05-04T16:28:57.800Z,1.85
2023-05-04T16:32:01.661Z,4.38
2023-05-04T16:35:04.190Z,3.63
2023-05-04T16:38:06.970Z,5.57
2023-05-04T16:41:11.002Z,5.07
2023-05-04T16:44:13.659Z,3.85
2023-05-04T16:47:16.258Z,4.95
2023-05-04T16:50:19.367Z,5.03
2023-05-04T16:53:21.971Z,3.97
2023-05-04T16:56:25.775Z,4.65
2023-05-04T16:59:29.264Z,4.35
2023-05-04T17:02:32.000Z,3.92
2023-05-04T17:05:35.003Z,3.45
2023-05-04T17:08:37.534Z,4.28
2023-05-04T17:11:41.397Z,4.43
2023-05-04T17:14:43.963Z,4.57
2023-05-04T17:17:46.773Z,3.33
2023-05-04T17:20:49.455Z,3.40
2023-05-04T17:23:51.954Z,3.88
2023-05-04T17:26:55.768Z,4.15
2023-05-04T17:29:58.277Z,3.58
2023-05-04T17:33:00.846Z,3.08
2023-05-04T17:36:03.973Z,2.92
2023-05-04T17:39:06.511Z,3.92
2023-05-04T17:42:10.748Z,4.63
2023-05-04T17:45:13.397Z,2.90
2023-05-04T17:48:16.423Z,2.30
2023-05-04T17:51:18.914Z,3.55
2023-05-04T17:54:21.390Z,5.13
2023-05-04T17:57:25.227Z,5.40
2023-05-04T18:00:27.971Z,4.38
2023-05-04T18:03:30.801Z,3.00
2023-05-04T18:06:33.606Z,3.05
2023-05-04T18:09:36.501Z,3.13
2023-05-04T18:12:40.901Z,3.35
2023-05-04T18:15:43.496Z,3.25
2023-05-04T18:18:46.011Z,2.90
2023-05-04T18:21:48.512Z,3.08
2023-05-04T18:24:50.996Z,3.63
2023-05-04T18:27:54.873Z,3.17
2023-05-04T18:30:57.407Z,3.50
2023-05-04T18:34:02.705Z,3.15
2023-05-04T18:37:05.210Z,3.50
2023-05-04T18:40:09.903Z,3.10
2023-05-04T18:43:13.976Z,3.05
2023-05-04T18:46:16.538Z,3.20
2023-05-04T18:49:19.062Z,3.17
2023-05-04T18:52:22.515Z,3.10
2023-05-04T18:55:25.239Z,3.00
2023-05-04T18:58:29.158Z,3.03
2023-05-04T19:01:31.691Z,3.42
2023-05-04T19:04:34.270Z,3.38
2023-05-04T19:07:37.014Z,4.15
2023-05-04T19:10:39.501Z,3.25
2023-05-04T19:13:43.551Z,3.67
2023-05-04T19:16:46.361Z,3.05
2023-05-04T19:19:48.932Z,3.33
2023-05-04T19:22:51.526Z,3.40
2023-05-04T19:25:54.083Z,3.42
2023-05-04T19:28:57.927Z,3.55
2023-05-04T19:32:05.545Z,3.72
2023-05-04T19:35:15.792Z,3.72
2023-05-04T19:38:18.282Z,3.38
2023-05-04T19:41:21.214Z,3.88
2023-05-04T19:44:25.051Z,3.83
2023-05-04T19:47:29.092Z,3.72
2023-05-04T19:50:32.081Z,4.25
2023-05-04T19:53:34.602Z,3.40
2023-05-04T19:56:37.104Z,3.92
2023-05-04T19:59:41.123Z,3.63
2023-05-04T20:02:43.840Z,3.67
2023-05-04T20:05:46.599Z,4.43
2023-05-04T20:08:49.203Z,3.95
2023-05-04T20:11:51.683Z,5.28
2023-05-04T20:14:55.517Z,4.57
2023-05-04T20:17:58.280Z,3.90
2023-05-04T20:21:00.812Z,3.80
2023-05-04T20:24:04.125Z,4.20
